Omaha, NE

4:54 AM CDT on April 21, 2015 (GMT -0500)
Midtown (42nd and Center) | | Change Station
CLOSE
Current Station
Personal Weather Station
Location: Omaha, NE
Elevation: 1220 ft
Nearby Weather Stations

Elev 1220 ft 41.24 °N, 95.97 °W | Updated 10 seconds ago

Partly Cloudy
Partly Cloudy
39.6 °F
Feels Like 40 °F
N
2.0
Wind Variable Wind from NW
Gusts 4.0 mph

Today
High -- | Low -- °F
--% Chance of Precip.
Yesterday
High -- | Low -- °F
Precip. -- in
6:35 AM 8:10 PM
Waxing Crescent, 9% visible
Pressure 29.82 in
Visibility 10.0 miles
Clouds Mostly Cloudy 10000 ft
Windchill 40 °F
Dew Point 25 °F
Humidity 55%
Rainfall 0.00 in
Snow Depth Not available.
UV 0.0 out of 12
Pollen 11.50 out of 12
Air Quality Not available.
Flu Activity Local Activity
METAR KOMA 210852Z 28010KT 10SM BKN100 07/M06 A2981 RMK AO2 SLP096 T00721061 53005

More Conditions Fewer Conditions

Pressure 29.82 in
Visibility 10.0 miles
Clouds Mostly Cloudy 10000 ft
Windchill 40 °F
Dew Point 25 °F
Humidity 55%
Rainfall 0.00 in
Snow Depth Not available.
UV 0.0 out of 12
Pollen 11.50 out of 12
Air Quality Not available.
Flu Activity Local Activity
METAR KOMA 210852Z 28010KT 10SM BKN100 07/M06 A2981 RMK AO2 SLP096 T00721061 53005

More Conditions Fewer Conditions

10-Day Weather Forecast

Almanac

Astronomy

Apr. 21, 2015 Rise Set
Actual Time
Civil Twilight
Nautical Twilight
Astronomical Twilight
Moon
Length of Visible Light
Length of Day
Tomorrow will be .
, % of the Moon is Illuminated

Today's Extremes

State Highs State Lows

Community

WunderPhotos

Upload Photos

1,815,331 photos uploaded!

WunderBlogs® & News

Nearby

Air Quality

  Air Quality AQ Index Pollutant
Not available.

Snow Depth

Station Depth Elevation

Earthquake Activity

City Distance Mag. Time & Date
Minimum magnitude displayed is 2.5.

Coastal Water Temperatures

Place Temperature

Stations

Nearby Weather Stations

Station Location Temp. Windchill Dew Point Humidity Wind Precip. Elev Updated Type